sensor_id;sensor_type;location;lat;lon;timestamp;pressure;altitude;pressure_sealevel;temperature;humidity
55373;BME280;41249;47.838;16.490;2023-03-05T00:02:12;99298.66;;;-1.50;57.81
55373;BME280;41249;47.838;16.490;2023-03-05T00:04:38;99288.09;;;-1.43;57.77
55373;BME280;41249;47.838;16.490;2023-03-05T00:07:05;99291.44;;;-1.46;57.59
55373;BME280;41249;47.838;16.490;2023-03-05T00:09:34;99291.94;;;-1.44;57.54
55373;BME280;41249;47.838;16.490;2023-03-05T00:12:01;99278.47;;;-1.49;57.75
55373;BME280;41249;47.838;16.490;2023-03-05T00:14:27;99282.78;;;-1.48;57.61
55373;BME280;41249;47.838;16.490;2023-03-05T00:16:54;99282.16;;;-1.45;57.16
55373;BME280;41249;47.838;16.490;2023-03-05T00:19:21;99279.78;;;-1.46;57.50
55373;BME280;41249;47.838;16.490;2023-03-05T00:21:47;99278.47;;;-1.49;57.32
55373;BME280;41249;47.838;16.490;2023-03-05T00:24:16;99275.91;;;-1.45;57.33
55373;BME280;41249;47.838;16.490;2023-03-05T00:26:44;99267.25;;;-1.47;57.25
55373;BME280;41249;47.838;16.490;2023-03-05T00:29:14;99273.38;;;-1.42;57.44
55373;BME280;41249;47.838;16.490;2023-03-05T00:31:41;99264.22;;;-1.46;57.21
55373;BME280;41249;47.838;16.490;2023-03-05T00:34:14;99269.34;;;-1.44;57.01
55373;BME280;41249;47.838;16.490;2023-03-05T00:36:44;99265.81;;;-1.45;57.34
55373;BME280;41249;47.838;16.490;2023-03-05T00:39:12;99259.28;;;-1.44;57.12
55373;BME280;41249;47.838;16.490;2023-03-05T00:41:39;99250.59;;;-1.46;57.52
55373;BME280;41249;47.838;16.490;2023-03-05T00:44:05;99248.38;;;-1.44;57.19
55373;BME280;41249;47.838;16.490;2023-03-05T00:46:32;99247.25;;;-1.43;56.59
55373;BME280;41249;47.838;16.490;2023-03-05T00:48:59;99243.88;;;-1.40;56.87
55373;BME280;41249;47.838;16.490;2023-03-05T00:51:26;99238.44;;;-1.40;56.84
55373;BME280;41249;47.838;16.490;2023-03-05T00:53:53;99237.97;;;-1.42;56.79
55373;BME280;41249;47.838;16.490;2023-03-05T00:56:20;99229.81;;;-1.42;56.73
55373;BME280;41249;47.838;16.490;2023-03-05T00:58:47;99227.22;;;-1.38;57.04
55373;BME280;41249;47.838;16.490;2023-03-05T01:01:14;99229.16;;;-1.39;57.50
55373;BME280;41249;47.838;16.490;2023-03-05T01:03:41;99227.38;;;-1.35;56.84
55373;BME280;41249;47.838;16.490;2023-03-05T01:06:11;99224.66;;;-1.35;56.97
55373;BME280;41249;47.838;16.490;2023-03-05T01:08:38;99215.88;;;-1.32;57.37
55373;BME280;41249;47.838;16.490;2023-03-05T01:11:06;99221.63;;;-1.33;57.08
55373;BME280;41249;47.838;16.490;2023-03-05T01:13:32;99216.16;;;-1.33;57.22
55373;BME280;41249;47.838;16.490;2023-03-05T01:15:59;99218.28;;;-1.39;57.22
55373;BME280;41249;47.838;16.490;2023-03-05T01:18:26;99216.50;;;-1.35;57.01
55373;BME280;41249;47.838;16.490;2023-03-05T01:20:53;99215.84;;;-1.40;56.37
55373;BME280;41249;47.838;16.490;2023-03-05T01:23:20;99212.47;;;-1.46;56.70
55373;BME280;41249;47.838;16.490;2023-03-05T01:25:52;99214.28;;;-1.41;56.62
55373;BME280;41249;47.838;16.490;2023-03-05T01:28:19;99212.97;;;-1.35;56.36
55373;BME280;41249;47.838;16.490;2023-03-05T01:30:46;99212.16;;;-1.36;56.60
55373;BME280;41249;47.838;16.490;2023-03-05T01:33:13;99210.59;;;-1.37;56.51
55373;BME280;41249;47.838;16.490;2023-03-05T01:35:39;99219.06;;;-1.38;57.26
55373;BME280;41249;47.838;16.490;2023-03-05T01:38:07;99202.72;;;-1.30;56.09
55373;BME280;41249;47.838;16.490;2023-03-05T01:40:33;99206.56;;;-1.31;56.77
55373;BME280;41249;47.838;16.490;2023-03-05T01:45:34;99206.09;;;-1.33;55.80
55373;BME280;41249;47.838;16.490;2023-03-05T01:48:01;99203.34;;;-1.33;56.10
55373;BME280;41249;47.838;16.490;2023-03-05T01:50:27;99202.25;;;-1.32;56.05
55373;BME280;41249;47.838;16.490;2023-03-05T01:53:00;99204.16;;;-1.32;56.15
55373;BME280;41249;47.838;16.490;2023-03-05T01:55:29;99204.34;;;-1.29;56.06
55373;BME280;41249;47.838;16.490;2023-03-05T01:58:04;99203.84;;;-1.31;55.42
55373;BME280;41249;47.838;16.490;2023-03-05T02:00:46;99202.25;;;-1.32;55.78
55373;BME280;41249;47.838;16.490;2023-03-05T02:03:13;99200.63;;;-1.33;55.62
55373;BME280;41249;47.838;16.490;2023-03-05T02:05:41;99203.69;;;-1.34;55.75
55373;BME280;41249;47.838;16.490;2023-03-05T02:08:15;99203.38;;;-1.41;55.21
55373;BME280;41249;47.838;16.490;2023-03-05T02:10:47;99205.44;;;-1.38;55.58
55373;BME280;41249;47.838;16.490;2023-03-05T02:13:34;99205.44;;;-1.38;55.38
55373;BME280;41249;47.838;16.490;2023-03-05T02:16:04;99205.28;;;-1.33;55.71
55373;BME280;41249;47.838;16.490;2023-03-05T02:18:31;99198.06;;;-1.38;55.81
55373;BME280;41249;47.838;16.490;2023-03-05T02:21:05;99197.44;;;-1.35;56.01
55373;BME280;41249;47.838;16.490;2023-03-05T02:23:34;99194.25;;;-1.37;55.55
55373;BME280;41249;47.838;16.490;2023-03-05T02:26:03;99192.31;;;-1.45;55.75
55373;BME280;41249;47.838;16.490;2023-03-05T02:31:00;99186.88;;;-1.45;55.69
55373;BME280;41249;47.838;16.490;2023-03-05T02:33:26;99183.03;;;-1.44;55.80
55373;BME280;41249;47.838;16.490;2023-03-05T02:35:53;99178.38;;;-1.43;55.76
55373;BME280;41249;47.838;16.490;2023-03-05T02:38:21;99171.00;;;-1.43;55.87
55373;BME280;41249;47.838;16.490;2023-03-05T02:40:47;99169.44;;;-1.44;55.71
55373;BME280;41249;47.838;16.490;2023-03-05T02:43:14;99173.72;;;-1.43;56.16
55373;BME280;41249;47.838;16.490;2023-03-05T02:45:41;99179.19;;;-1.43;56.11
55373;BME280;41249;47.838;16.490;2023-03-05T02:48:07;99171.00;;;-1.43;56.23
55373;BME280;41249;47.838;16.490;2023-03-05T02:50:34;99179.19;;;-1.43;55.79
55373;BME280;41249;47.838;16.490;2023-03-05T02:53:02;99175.34;;;-1.42;55.97
55373;BME280;41249;47.838;16.490;2023-03-05T02:55:28;99165.91;;;-1.44;56.15
55373;BME280;41249;47.838;16.490;2023-03-05T02:57:55;99164.94;;;-1.48;56.27
55373;BME280;41249;47.838;16.490;2023-03-05T03:00:21;99171.97;;;-1.47;56.08
55373;BME280;41249;47.838;16.490;2023-03-05T03:02:48;99161.09;;;-1.47;56.40
55373;BME280;41249;47.838;16.490;2023-03-05T03:05:15;99167.50;;;-1.52;56.30
55373;BME280;41249;47.838;16.490;2023-03-05T03:07:41;99167.50;;;-1.52;56.63
55373;BME280;41249;47.838;16.490;2023-03-05T03:10:09;99171.34;;;-1.44;56.42
55373;BME280;41249;47.838;16.490;2023-03-05T03:12:40;99159.19;;;-1.47;56.11
55373;BME280;41249;47.838;16.490;2023-03-05T03:15:08;99163.81;;;-1.47;56.65
55373;BME280;41249;47.838;16.490;2023-03-05T03:17:37;99166.38;;;-1.51;57.31
55373;BME280;41249;47.838;16.490;2023-03-05T03:20:07;99166.88;;;-1.49;56.89
55373;BME280;41249;47.838;16.490;2023-03-05T03:22:33;99166.53;;;-1.47;56.83
55373;BME280;41249;47.838;16.490;2023-03-05T03:25:00;99158.22;;;-1.42;56.74
55373;BME280;41249;47.838;16.490;2023-03-05T03:27:27;99168.28;;;-1.43;56.87
55373;BME280;41249;47.838;16.490;2023-03-05T03:29:54;99161.41;;;-1.40;57.13
55373;BME280;41249;47.838;16.490;2023-03-05T03:32:20;99155.47;;;-1.42;57.13
55373;BME280;41249;47.838;16.490;2023-03-05T03:34:47;99168.00;;;-1.41;56.83
55373;BME280;41249;47.838;16.490;2023-03-05T03:37:14;99154.53;;;-1.46;57.17
55373;BME280;41249;47.838;16.490;2023-03-05T03:39:40;99153.09;;;-1.52;57.81
55373;BME280;41249;47.838;16.490;2023-03-05T03:42:07;99154.53;;;-1.55;57.38
55373;BME280;41249;47.838;16.490;2023-03-05T03:44:33;99155.34;;;-1.54;57.36
55373;BME280;41249;47.838;16.490;2023-03-05T03:47:00;99147.47;;;-1.56;57.65
55373;BME280;41249;47.838;16.490;2023-03-05T03:49:27;99156.91;;;-1.53;57.75
55373;BME280;41249;47.838;16.490;2023-03-05T03:51:54;99146.38;;;-1.55;57.68
55373;BME280;41249;47.838;16.490;2023-03-05T03:54:21;99146.03;;;-1.53;57.68
55373;BME280;41249;47.838;16.490;2023-03-05T03:56:48;99140.44;;;-1.57;57.82
55373;BME280;41249;47.838;16.490;2023-03-05T03:59:14;99135.47;;;-1.55;57.90
55373;BME280;41249;47.838;16.490;2023-03-05T04:01:41;99127.31;;;-1.55;58.50
55373;BME280;41249;47.838;16.490;2023-03-05T04:04:10;99132.75;;;-1.55;58.26
55373;BME280;41249;47.838;16.490;2023-03-05T04:06:37;99131.16;;;-1.47;58.21
55373;BME280;41249;47.838;16.490;2023-03-05T04:09:05;99127.78;;;-1.53;58.05
55373;BME280;41249;47.838;16.490;2023-03-05T04:11:34;99114.47;;;-1.46;58.54
55373;BME280;41249;47.838;16.490;2023-03-05T04:14:02;99112.25;;;-1.44;58.13
55373;BME280;41249;47.838;16.490;2023-03-05T04:16:29;99116.25;;;-1.41;58.09
55373;BME280;41249;47.838;16.490;2023-03-05T04:18:55;99118.97;;;-1.41;57.92
55373;BME280;41249;47.838;16.490;2023-03-05T04:21:22;99124.09;;;-1.40;57.99
55373;BME280;41249;47.838;16.490;2023-03-05T04:23:49;99114.81;;;-1.39;57.91
55373;BME280;41249;47.838;16.490;2023-03-05T04:26:15;99114.81;;;-1.39;57.71
55373;BME280;41249;47.838;16.490;2023-03-05T04:28:42;99120.91;;;-1.42;57.78
55373;BME280;41249;47.838;16.490;2023-03-05T04:31:08;99112.41;;;-1.40;57.72
55373;BME280;41249;47.838;16.490;2023-03-05T04:33:35;99106.47;;;-1.42;57.84
55373;BME280;41249;47.838;16.490;2023-03-05T04:36:02;99113.84;;;-1.43;58.07
55373;BME280;41249;47.838;16.490;2023-03-05T04:38:28;99104.69;;;-1.38;57.83
55373;BME280;41249;47.838;16.490;2023-03-05T04:40:55;99113.38;;;-1.36;57.96
55373;BME280;41249;47.838;16.490;2023-03-05T04:43:21;99104.41;;;-1.37;57.99
55373;BME280;41249;47.838;16.490;2023-03-05T04:45:48;99097.66;;;-1.39;58.61
55373;BME280;41249;47.838;16.490;2023-03-05T04:48:14;99094.31;;;-1.36;58.42
55373;BME280;41249;47.838;16.490;2023-03-05T04:50:42;99097.81;;;-1.36;58.18
55373;BME280;41249;47.838;16.490;2023-03-05T04:53:09;99097.81;;;-1.36;58.49
55373;BME280;41249;47.838;16.490;2023-03-05T04:55:35;99097.97;;;-1.32;58.68
55373;BME280;41249;47.838;16.490;2023-03-05T04:58:02;99103.59;;;-1.29;59.01
55373;BME280;41249;47.838;16.490;2023-03-05T05:00:29;99100.84;;;-1.29;58.77
55373;BME280;41249;47.838;16.490;2023-03-05T05:02:55;99104.69;;;-1.30;58.86
55373;BME280;41249;47.838;16.490;2023-03-05T05:05:25;99109.03;;;-1.29;58.74
55373;BME280;41249;47.838;16.490;2023-03-05T05:07:54;99096.69;;;-1.26;59.18
55373;BME280;41249;47.838;16.490;2023-03-05T05:10:22;99102.31;;;-1.31;59.23
55373;BME280;41249;47.838;16.490;2023-03-05T05:12:49;99101.97;;;-1.30;58.94
55373;BME280;41249;47.838;16.490;2023-03-05T05:15:16;99110.94;;;-1.29;59.10
55373;BME280;41249;47.838;16.490;2023-03-05T05:17:43;99099.59;;;-1.31;58.86
55373;BME280;41249;47.838;16.490;2023-03-05T05:20:11;99105.66;;;-1.34;59.18
55373;BME280;41249;47.838;16.490;2023-03-05T05:22:38;99102.59;;;-1.33;58.63
55373;BME280;41249;47.838;16.490;2023-03-05T05:25:05;99105.03;;;-1.31;58.91
55373;BME280;41249;47.838;16.490;2023-03-05T05:27:31;99090.28;;;-1.30;58.89
55373;BME280;41249;47.838;16.490;2023-03-05T05:29:58;99105.16;;;-1.28;58.82
55373;BME280;41249;47.838;16.490;2023-03-05T05:32:24;99107.88;;;-1.28;59.08
55373;BME280;41249;47.838;16.490;2023-03-05T05:34:56;99112.56;;;-1.37;58.62
55373;BME280;41249;47.838;16.490;2023-03-05T05:37:24;99122.00;;;-1.34;59.08
55373;BME280;41249;47.838;16.490;2023-03-05T05:39:51;99112.09;;;-1.39;58.65
55373;BME280;41249;47.838;16.490;2023-03-05T05:42:20;99115.44;;;-1.42;59.02
55373;BME280;41249;47.838;16.490;2023-03-05T05:44:47;99116.41;;;-1.38;59.18
55373;BME280;41249;47.838;16.490;2023-03-05T05:47:14;99115.44;;;-1.42;58.94
55373;BME280;41249;47.838;16.490;2023-03-05T05:49:41;99120.59;;;-1.49;59.14
55373;BME280;41249;47.838;16.490;2023-03-05T05:52:07;99121.06;;;-1.47;59.60
55373;BME280;41249;47.838;16.490;2023-03-05T05:54:34;99136.25;;;-1.46;60.06
55373;BME280;41249;47.838;16.490;2023-03-05T05:57:00;99127.63;;;-1.48;59.34
55373;BME280;41249;47.838;16.490;2023-03-05T05:59:27;99128.25;;;-1.51;59.65
55373;BME280;41249;47.838;16.490;2023-03-05T06:01:54;99131.78;;;-1.50;59.70
55373;BME280;41249;47.838;16.490;2023-03-05T06:04:21;99139.16;;;-1.51;59.82
55373;BME280;41249;47.838;16.490;2023-03-05T06:06:48;99135.47;;;-1.46;59.69
55373;BME280;41249;47.838;16.490;2023-03-05T06:09:15;99136.25;;;-1.46;60.34
55373;BME280;41249;47.838;16.490;2023-03-05T06:11:41;99129.22;;;-1.47;60.61
55373;BME280;41249;47.838;16.490;2023-03-05T06:14:10;99130.34;;;-1.39;60.37
55373;BME280;41249;47.838;16.490;2023-03-05T06:16:37;99138.69;;;-1.44;60.34
55373;BME280;41249;47.838;16.490;2023-03-05T06:19:04;99136.59;;;-1.39;60.31
55373;BME280;41249;47.838;16.490;2023-03-05T06:21:31;99127.91;;;-1.41;60.20
55373;BME280;41249;47.838;16.490;2023-03-05T06:23:58;99126.47;;;-1.30;60.13
55373;BME280;41249;47.838;16.490;2023-03-05T06:26:25;99110.59;;;-1.28;60.35
55373;BME280;41249;47.838;16.490;2023-03-05T06:28:52;99117.78;;;-1.15;60.23
55373;BME280;41249;47.838;16.490;2023-03-05T06:31:23;99110.56;;;-1.11;60.80
55373;BME280;41249;47.838;16.490;2023-03-05T06:33:57;99107.00;;;-1.02;60.82
55373;BME280;41249;47.838;16.490;2023-03-05T06:36:27;99111.81;;;-0.99;60.39
55373;BME280;41249;47.838;16.490;2023-03-05T06:38:55;99103.81;;;-1.04;60.81
55373;BME280;41249;47.838;16.490;2023-03-05T06:41:25;99109.66;;;-0.85;61.32
55373;BME280;41249;47.838;16.490;2023-03-05T06:43:53;99107.59;;;-0.88;61.45
55373;BME280;41249;47.838;16.490;2023-03-05T06:46:25;99103.56;;;-0.82;62.32
55373;BME280;41249;47.838;16.490;2023-03-05T06:48:55;99103.69;;;-0.70;61.73
55373;BME280;41249;47.838;16.490;2023-03-05T06:51:25;99101.94;;;-0.75;61.40
55373;BME280;41249;47.838;16.490;2023-03-05T06:53:52;99107.34;;;-0.66;61.89
55373;BME280;41249;47.838;16.490;2023-03-05T06:56:19;99109.41;;;-0.63;61.07
55373;BME280;41249;47.838;16.490;2023-03-05T06:58:48;99107.16;;;-0.61;60.75
55373;BME280;41249;47.838;16.490;2023-03-05T07:01:16;99108.09;;;-0.57;60.50
55373;BME280;41249;47.838;16.490;2023-03-05T07:03:43;99091.28;;;-0.59;60.03
55373;BME280;41249;47.838;16.490;2023-03-05T07:06:12;99105.84;;;-0.55;60.42
55373;BME280;41249;47.838;16.490;2023-03-05T07:08:39;99095.88;;;-0.51;59.59
55373;BME280;41249;47.838;16.490;2023-03-05T07:11:11;99107.34;;;-0.66;59.59
55373;BME280;41249;47.838;16.490;2023-03-05T07:13:38;99107.78;;;-0.56;60.07
55373;BME280;41249;47.838;16.490;2023-03-05T07:16:06;99106.50;;;-0.58;59.31
55373;BME280;41249;47.838;16.490;2023-03-05T07:18:34;99107.66;;;-0.59;59.59
55373;BME280;41249;47.838;16.490;2023-03-05T07:21:02;99109.38;;;-0.55;58.89
55373;BME280;41249;47.838;16.490;2023-03-05T07:23:29;99111.13;;;-0.50;58.79
55373;BME280;41249;47.838;16.490;2023-03-05T07:25:55;99115.56;;;-0.46;58.57
55373;BME280;41249;47.838;16.490;2023-03-05T07:28:22;99117.31;;;-0.41;58.41
55373;BME280;41249;47.838;16.490;2023-03-05T07:31:00;99115.56;;;-0.46;57.71
55373;BME280;41249;47.838;16.490;2023-03-05T07:33:27;99109.00;;;-0.45;57.52
55373;BME280;41249;47.838;16.490;2023-03-05T07:35:54;99105.47;;;-0.45;57.69
55373;BME280;41249;47.838;16.490;2023-03-05T07:38:21;99111.19;;;-0.38;57.52
55373;BME280;41249;47.838;16.490;2023-03-05T07:40:48;99105.28;;;-0.40;57.76
55373;BME280;41249;47.838;16.490;2023-03-05T07:43:15;99106.09;;;-0.39;57.61
55373;BME280;41249;47.838;16.490;2023-03-05T07:45:42;99113.47;;;-0.40;58.17
55373;BME280;41249;47.838;16.490;2023-03-05T07:48:15;99113.09;;;-0.30;57.91
55373;BME280;41249;47.838;16.490;2023-03-05T07:50:43;99099.63;;;-0.35;57.12
55373;BME280;41249;47.838;16.490;2023-03-05T07:53:10;99105.25;;;-0.31;56.90
55373;BME280;41249;47.838;16.490;2023-03-05T07:55:46;99108.09;;;-0.28;56.92
55373;BME280;41249;47.838;16.490;2023-03-05T07:58:13;99097.44;;;-0.21;56.65
55373;BME280;41249;47.838;16.490;2023-03-05T08:00:40;99098.88;;;-0.15;56.92
55373;BME280;41249;47.838;16.490;2023-03-05T08:03:06;99095.41;;;-0.03;57.15
55373;BME280;41249;47.838;16.490;2023-03-05T08:05:33;99090.09;;;0.00;56.81
55373;BME280;41249;47.838;16.490;2023-03-05T08:08:00;99096.63;;;0.08;56.39
55373;BME280;41249;47.838;16.490;2023-03-05T08:10:26;99100.16;;;0.08;56.75
55373;BME280;41249;47.838;16.490;2023-03-05T08:12:53;99096.25;;;0.09;56.45
55373;BME280;41249;47.838;16.490;2023-03-05T08:15:20;99090.19;;;0.04;56.92
55373;BME280;41249;47.838;16.490;2023-03-05T08:17:46;99089.75;;;0.02;56.77
55373;BME280;41249;47.838;16.490;2023-03-05T08:20:13;99093.47;;;-0.03;56.62
55373;BME280;41249;47.838;16.490;2023-03-05T08:22:39;99073.38;;;0.02;57.06
55373;BME280;41249;47.838;16.490;2023-03-05T08:25:06;99086.22;;;0.01;56.63
55373;BME280;41249;47.838;16.490;2023-03-05T08:27:43;99096.63;;;0.08;56.83
55373;BME280;41249;47.838;16.490;2023-03-05T08:30:16;99099.00;;;0.09;56.82
55373;BME280;41249;47.838;16.490;2023-03-05T08:32:43;99089.81;;;0.14;56.98
55373;BME280;41249;47.838;16.490;2023-03-05T08:35:10;99088.78;;;0.18;56.88
55373;BME280;41249;47.838;16.490;2023-03-05T08:56:31;99083.13;;;0.44;54.92
55373;BME280;41249;47.838;16.490;2023-03-05T08:58:57;99092.56;;;0.47;55.85
55373;BME280;41249;47.838;16.490;2023-03-05T09:01:24;99092.31;;;0.40;55.56
55373;BME280;41249;47.838;16.490;2023-03-05T09:03:50;99077.34;;;0.46;55.14
55373;BME280;41249;47.838;16.490;2023-03-05T09:06:17;99077.38;;;0.58;56.14
55373;BME280;41249;47.838;16.490;2023-03-05T09:08:44;99085.09;;;0.56;55.69
55373;BME280;41249;47.838;16.490;2023-03-05T09:11:12;99077.22;;;0.54;54.95
55373;BME280;41249;47.838;16.490;2023-03-05T09:13:39;99082.94;;;0.61;55.39
55373;BME280;41249;47.838;16.490;2023-03-05T09:16:08;99080.94;;;0.70;54.94
55373;BME280;41249;47.838;16.490;2023-03-05T09:18:36;99079.97;;;0.87;55.00
55373;BME280;41249;47.838;16.490;2023-03-05T09:21:07;99074.88;;;0.98;54.16
55373;BME280;41249;47.838;16.490;2023-03-05T09:23:34;99081.19;;;0.77;54.06
55373;BME280;41249;47.838;16.490;2023-03-05T09:26:01;99079.97;;;0.99;53.94
55373;BME280;41249;47.838;16.490;2023-03-05T09:28:29;99068.06;;;1.28;53.31
55373;BME280;41249;47.838;16.490;2023-03-05T09:30:56;99084.78;;;1.14;53.67
55373;BME280;41249;47.838;16.490;2023-03-05T09:33:23;99089.59;;;1.41;53.17
55373;BME280;41249;47.838;16.490;2023-03-05T09:35:49;99075.00;;;1.37;53.16
55373;BME280;41249;47.838;16.490;2023-03-05T09:38:16;99080.00;;;1.60;53.30
55373;BME280;41249;47.838;16.490;2023-03-05T09:41:01;99073.84;;;1.63;52.07
55373;BME280;41249;47.838;16.490;2023-03-05T09:46:27;99067.16;;;1.48;52.81
55373;BME280;41249;47.838;16.490;2023-03-05T09:49:02;99067.78;;;1.69;52.45
55373;BME280;41249;47.838;16.490;2023-03-05T10:29:54;99045.06;;;2.48;49.65
55373;BME280;41249;47.838;16.490;2023-03-05T10:54:39;99030.03;;;2.14;50.19
55373;BME280;41249;47.838;16.490;2023-03-05T17:20:04;98755.56;;;0.23;46.58
55373;BME280;41249;47.838;16.490;2023-03-05T17:22:31;98751.50;;;0.17;46.06
55373;BME280;41249;47.838;16.490;2023-03-05T17:24:57;98758.78;;;0.13;46.56
55373;BME280;41249;47.838;16.490;2023-03-05T17:27:24;98765.94;;;0.06;46.69
55373;BME280;41249;47.838;16.490;2023-03-05T17:29:50;98764.47;;;0.08;46.80
55373;BME280;41249;47.838;16.490;2023-03-05T17:32:17;98761.41;;;0.10;47.00
55373;BME280;41249;47.838;16.490;2023-03-05T17:34:44;98760.13;;;0.07;46.85
55373;BME280;41249;47.838;16.490;2023-03-05T17:37:11;98761.25;;;0.06;47.02
55373;BME280;41249;47.838;16.490;2023-03-05T17:39:38;98780.59;;;0.01;47.85
55373;BME280;41249;47.838;16.490;2023-03-05T17:42:04;98768.09;;;0.00;47.64
55373;BME280;41249;47.838;16.490;2023-03-05T17:44:31;98768.09;;;0.00;47.78
55373;BME280;41249;47.838;16.490;2023-03-05T17:46:57;98779.03;;;0.00;47.87
55373;BME280;41249;47.838;16.490;2023-03-05T17:49:24;98779.03;;;0.00;48.09
55373;BME280;41249;47.838;16.490;2023-03-05T17:51:51;98774.22;;;-0.03;47.46
55373;BME280;41249;47.838;16.490;2023-03-05T17:54:17;98776.50;;;-0.05;47.96
55373;BME280;41249;47.838;16.490;2023-03-05T17:56:44;98772.97;;;-0.05;47.79
55373;BME280;41249;47.838;16.490;2023-03-05T17:59:13;98776.97;;;-0.03;48.00
55373;BME280;41249;47.838;16.490;2023-03-05T18:01:41;98771.72;;;-0.08;47.88
55373;BME280;41249;47.838;16.490;2023-03-05T18:04:08;98776.38;;;-0.08;47.81
55373;BME280;41249;47.838;16.490;2023-03-05T18:06:36;98773.34;;;-0.07;47.96
55373;BME280;41249;47.838;16.490;2023-03-05T18:09:03;98784.34;;;-0.03;47.87
55373;BME280;41249;47.838;16.490;2023-03-05T18:11:29;98772.53;;;-0.07;48.22
55373;BME280;41249;47.838;16.490;2023-03-05T18:13:56;98775.72;;;-0.05;47.76
55373;BME280;41249;47.838;16.490;2023-03-05T18:16:22;98764.66;;;-0.09;47.73
55373;BME280;41249;47.838;16.490;2023-03-05T18:18:51;98771.72;;;-0.08;47.68
55373;BME280;41249;47.838;16.490;2023-03-05T18:21:19;98763.91;;;-0.09;47.70
55373;BME280;41249;47.838;16.490;2023-03-05T18:23:46;98769.34;;;-0.09;47.71
55373;BME280;41249;47.838;16.490;2023-03-05T18:26:13;98768.56;;;-0.10;47.54
55373;BME280;41249;47.838;16.490;2023-03-05T18:28:39;98762.28;;;-0.10;47.96
55373;BME280;41249;47.838;16.490;2023-03-05T18:33:41;98764.22;;;-0.11;47.41
55373;BME280;41249;47.838;16.490;2023-03-05T18:36:09;98766.28;;;-0.08;47.10
55373;BME280;41249;47.838;16.490;2023-03-05T18:38:36;98768.56;;;-0.10;47.44
55373;BME280;41249;47.838;16.490;2023-03-05T18:41:04;98771.28;;;-0.10;47.25
55373;BME280;41249;47.838;16.490;2023-03-05T18:43:31;98764.22;;;-0.11;46.91
55373;BME280;41249;47.838;16.490;2023-03-05T18:45:58;98767.63;;;-0.14;47.63
55373;BME280;41249;47.838;16.490;2023-03-05T18:48:24;98771.16;;;-0.13;47.57
55373;BME280;41249;47.838;16.490;2023-03-05T18:50:52;98772.31;;;-0.14;47.46
55373;BME280;41249;47.838;16.490;2023-03-05T18:53:20;98767.88;;;-0.07;47.45
55373;BME280;41249;47.838;16.490;2023-03-05T18:55:47;98771.50;;;-0.03;47.29
55373;BME280;41249;47.838;16.490;2023-03-05T18:58:16;98767.75;;;-0.10;47.94
55373;BME280;41249;47.838;16.490;2023-03-05T19:00:43;98769.69;;;-0.11;48.08
55373;BME280;41249;47.838;16.490;2023-03-05T19:03:13;98766.50;;;-0.13;47.35
55373;BME280;41249;47.838;16.490;2023-03-05T19:05:40;98763.78;;;-0.13;47.37
55373;BME280;41249;47.838;16.490;2023-03-05T19:08:07;98768.56;;;-0.10;48.10
55373;BME280;41249;47.838;16.490;2023-03-05T19:10:34;98765.47;;;-0.08;48.13
55373;BME280;41249;47.838;16.490;2023-03-05T19:13:27;98764.66;;;-0.09;48.16
55373;BME280;41249;47.838;16.490;2023-03-05T19:16:28;98763.09;;;-0.10;47.81
55373;BME280;41249;47.838;16.490;2023-03-05T19:19:05;98770.13;;;-0.09;48.14
55373;BME280;41249;47.838;16.490;2023-03-05T19:21:43;98774.81;;;-0.09;48.26
55373;BME280;41249;47.838;16.490;2023-03-05T19:24:11;98766.72;;;-0.06;47.87
55373;BME280;41249;47.838;16.490;2023-03-05T19:26:38;98764.34;;;-0.07;47.71
55373;BME280;41249;47.838;16.490;2023-03-05T19:29:06;98788.22;;;-0.04;48.37
55373;BME280;41249;47.838;16.490;2023-03-05T19:31:34;98776.06;;;-0.07;47.84
55373;BME280;41249;47.838;16.490;2023-03-05T19:34:01;98773.22;;;-0.10;47.89
55373;BME280;41249;47.838;16.490;2023-03-05T19:36:29;98776.28;;;-0.12;47.75
55373;BME280;41249;47.838;16.490;2023-03-05T19:38:56;98775.59;;;-0.09;48.05
55373;BME280;41249;47.838;16.490;2023-03-05T19:41:22;98788.09;;;-0.08;48.07
55373;BME280;41249;47.838;16.490;2023-03-05T19:43:49;98769.69;;;-0.11;47.96
55373;BME280;41249;47.838;16.490;2023-03-05T19:46:16;98770.59;;;-0.07;47.84
55373;BME280;41249;47.838;16.490;2023-03-05T19:48:43;98773.34;;;-0.07;48.02
55373;BME280;41249;47.838;16.490;2023-03-05T19:51:15;98766.16;;;-0.11;48.40
55373;BME280;41249;47.838;16.490;2023-03-05T19:53:42;98766.94;;;-0.11;48.15
55373;BME280;41249;47.838;16.490;2023-03-05T19:56:09;98769.69;;;-0.11;48.07
55373;BME280;41249;47.838;16.490;2023-03-05T19:58:36;98761.50;;;-0.11;48.12
55373;BME280;41249;47.838;16.490;2023-03-05T20:01:11;98761.50;;;-0.11;48.21
55373;BME280;41249;47.838;16.490;2023-03-05T20:03:39;98759.44;;;-0.14;48.79
55373;BME280;41249;47.838;16.490;2023-03-05T20:06:06;98764.44;;;-0.16;48.76
55373;BME280;41249;47.838;16.490;2023-03-05T20:08:33;98758.31;;;-0.13;49.34
55373;BME280;41249;47.838;16.490;2023-03-05T20:11:00;98759.00;;;-0.16;48.61
55373;BME280;41249;47.838;16.490;2023-03-05T20:13:27;98758.66;;;-0.14;49.12
55373;BME280;41249;47.838;16.490;2023-03-05T20:15:54;98762.41;;;-0.07;49.87
55373;BME280;41249;47.838;16.490;2023-03-05T20:18:21;98752.28;;;-0.06;49.66
55373;BME280;41249;47.838;16.490;2023-03-05T20:20:52;98742.97;;;-0.05;49.09
55373;BME280;41249;47.838;16.490;2023-03-05T20:23:20;98758.53;;;-0.06;49.21
55373;BME280;41249;47.838;16.490;2023-03-05T20:25:47;98753.75;;;-0.09;48.99
55373;BME280;41249;47.838;16.490;2023-03-05T20:28:14;98749.47;;;-0.10;49.55
55373;BME280;41249;47.838;16.490;2023-03-05T20:30:41;98751.03;;;-0.09;49.53
55373;BME280;41249;47.838;16.490;2023-03-05T20:33:09;98743.31;;;-0.07;50.01
55373;BME280;41249;47.838;16.490;2023-03-05T20:35:36;98746.72;;;0.02;50.64
55373;BME280;41249;47.838;16.490;2023-03-05T20:38:15;98744.91;;;-0.06;50.42
55373;BME280;41249;47.838;16.490;2023-03-05T20:40:52;98745.81;;;-0.14;50.29
55373;BME280;41249;47.838;16.490;2023-03-05T20:43:20;98737.16;;;-0.16;50.55
55373;BME280;41249;47.838;16.490;2023-03-05T20:45:47;98736.03;;;-0.15;49.85
55373;BME280;41249;47.838;16.490;2023-03-05T20:48:13;98734.13;;;-0.14;49.83
55373;BME280;41249;47.838;16.490;2023-03-05T20:50:40;98734.44;;;-0.04;50.51